Main page
METAR-TAF:

METAR-TAF

Airports :

Avignon – Provence Airport

Avignon, France

latitude: 43-54-26N, longitude: 004-54-07E, elevation: 38 m

Current weather observation

The report was made 24 minutes ago, at 05:30 UTC
Wind 3 kt from the East/Northeast, varying between North/Northeast and East/Southeast
Temperature 19°C
Humidity 73%
Pressure 1018 hPa
Visibility 10 km or more
no clouds below 1500 m and no cumulonimbus

METAR: LFMV 250530Z AUTO 07003KT 030V120 CAVOK 19/14 Q1018 NOSIG

Time: 07:54 (05:54 UTC)

Forecast

The report was made 3 hours and 54 minutes ago, at 02:00 UTC
Forecast valid from 25 at 03 UTC to 26 at 03 UTC
Wind 5 kt from variable directions
Visibility 10 km or more
no clouds below 1500 m and no cumulonimbus
Becoming
from 25 at 13 UTC to 25 at 15 UTC
Wind 10 kt from the West/Southwest
Becoming
from 25 at 18 UTC to 25 at 20 UTC
Wind 5 kt from variable directions

TAF: LFMV 250200Z 2503/2603 VRB05KT CAVOK BECMG 2513/2515 24010KT BECMG 2518/2520 VRB05KT

Weather observations and forecasts of more than 4000 airports (METAR and TAF reports).

The available stations are represented by yellow and red dots on the map.

Hover mouse over dot to see the name of the station.

Then click to see weather observations and forecasts.

To change the map : click on the green buttons with a black cross to zoom in, on the green button with a dash to zoom out, or on the green arrows for adjacent maps.


METAR-TAF: